createdAt,value
2023-10-29T00:01:10.801Z,5.10
2023-10-29T00:03:40.427Z,5.30
2023-10-29T00:06:12.033Z,5.88
2023-10-29T00:08:40.968Z,6.53
2023-10-29T00:11:14.169Z,5.35
2023-10-29T00:13:42.978Z,5.30
2023-10-29T00:16:12.922Z,5.73
2023-10-29T00:18:42.148Z,5.60
2023-10-29T00:21:11.086Z,4.65
2023-10-29T00:23:40.180Z,4.78
2023-10-29T00:26:09.269Z,6.70
2023-10-29T00:28:41.216Z,5.50
2023-10-29T00:31:09.965Z,3.78
2023-10-29T00:33:38.878Z,7.93
2023-10-29T00:36:08.215Z,4.40
2023-10-29T00:38:37.394Z,4.57
2023-10-29T00:41:06.533Z,5.60
2023-10-29T00:43:41.126Z,3.55
2023-10-29T00:46:13.196Z,6.15
2023-10-29T00:48:42.613Z,5.25
2023-10-29T00:51:11.621Z,9.25
2023-10-29T00:53:40.734Z,5.10
2023-10-29T00:56:10.200Z,4.35
2023-10-29T00:58:39.639Z,6.85
2023-10-29T01:01:08.800Z,4.68
2023-10-29T01:03:38.911Z,5.20
2023-10-29T01:06:08.618Z,5.93
2023-10-29T01:08:38.047Z,5.18
2023-10-29T01:11:08.470Z,5.57
2023-10-29T01:13:37.457Z,4.45
2023-10-29T01:16:06.797Z,5.45
2023-10-29T01:18:35.931Z,4.97
2023-10-29T01:21:06.553Z,5.25
2023-10-29T01:23:35.673Z,8.90
2023-10-29T01:26:04.757Z,3.97
2023-10-29T01:28:34.660Z,3.90
2023-10-29T01:31:03.629Z,4.03
2023-10-29T01:33:33.259Z,4.80
2023-10-29T01:36:02.397Z,5.63
2023-10-29T01:38:32.812Z,7.07
2023-10-29T01:41:02.162Z,5.78
2023-10-29T01:43:31.180Z,5.63
2023-10-29T01:46:00.101Z,5.28
2023-10-29T01:48:29.191Z,5.15
2023-10-29T01:51:03.999Z,5.68
2023-10-29T01:53:34.323Z,4.03
2023-10-29T01:56:03.302Z,4.20
2023-10-29T01:58:32.095Z,3.83
2023-10-29T02:01:01.389Z,6.50
2023-10-29T02:03:31.205Z,5.43
2023-10-29T02:06:00.375Z,6.85
2023-10-29T02:08:29.464Z,4.27
2023-10-29T02:10:59.580Z,5.85
2023-10-29T02:13:28.581Z,4.75
2023-10-29T02:15:57.724Z,6.90
2023-10-29T02:18:26.735Z,5.53
2023-10-29T02:20:55.594Z,6.47
2023-10-29T02:23:25.834Z,5.10
2023-10-29T02:25:54.621Z,5.03
2023-10-29T02:28:23.612Z,5.07
2023-10-29T02:30:52.959Z,4.75
2023-10-29T02:33:23.823Z,4.73
2023-10-29T02:35:53.267Z,3.38
2023-10-29T02:38:22.226Z,5.07
2023-10-29T02:40:52.621Z,6.05
2023-10-29T02:43:21.561Z,5.13
2023-10-29T02:45:50.491Z,7.80
2023-10-29T02:48:19.597Z,4.78
2023-10-29T02:50:48.627Z,3.33
2023-10-29T02:53:17.585Z,4.40
2023-10-29T02:55:46.735Z,3.72
2023-10-29T02:58:16.952Z,4.20
2023-10-29T03:00:45.879Z,3.15
2023-10-29T03:03:14.777Z,4.30
2023-10-29T03:05:54.185Z,4.43
2023-10-29T03:08:26.250Z,4.70
2023-10-29T03:10:55.388Z,5.23
2023-10-29T03:13:25.558Z,5.95
2023-10-29T03:15:54.608Z,4.35
2023-10-29T03:18:25.251Z,5.13
2023-10-29T03:20:54.418Z,6.57
2023-10-29T03:23:25.321Z,3.80
2023-10-29T03:25:55.118Z,4.88
2023-10-29T03:28:25.181Z,6.80
2023-10-29T03:30:53.939Z,5.22
2023-10-29T03:33:23.320Z,3.85
2023-10-29T03:35:52.496Z,4.10
2023-10-29T03:38:21.493Z,5.70
2023-10-29T03:40:50.613Z,5.38
2023-10-29T03:43:19.579Z,4.25
2023-10-29T03:45:49.917Z,5.28
2023-10-29T03:48:19.106Z,5.30
2023-10-29T03:50:48.600Z,4.70
2023-10-29T03:53:17.906Z,6.18
2023-10-29T03:55:46.700Z,5.18
2023-10-29T03:58:15.969Z,3.72
2023-10-29T04:00:54.035Z,5.70
2023-10-29T04:03:23.247Z,5.07
2023-10-29T04:05:52.329Z,6.93
2023-10-29T04:08:20.966Z,4.55
2023-10-29T04:10:49.557Z,5.65
2023-10-29T04:13:18.346Z,6.03
2023-10-29T04:15:47.790Z,5.20
2023-10-29T04:18:17.857Z,7.80
2023-10-29T04:20:46.401Z,5.05
2023-10-29T04:23:14.847Z,4.75
2023-10-29T04:25:45.266Z,4.53
2023-10-29T04:28:13.700Z,4.72
2023-10-29T04:30:42.302Z,4.70
2023-10-29T04:33:10.934Z,4.95
2023-10-29T04:35:40.460Z,4.75
2023-10-29T04:38:08.846Z,5.70
2023-10-29T04:40:37.415Z,6.03
2023-10-29T04:43:05.822Z,6.40
2023-10-29T04:45:34.281Z,4.82
2023-10-29T04:48:02.941Z,3.80
2023-10-29T04:50:31.598Z,5.30
2023-10-29T04:53:03.491Z,6.13
2023-10-29T04:55:31.846Z,5.28
2023-10-29T04:58:00.260Z,5.85
2023-10-29T05:00:29.894Z,5.82
2023-10-29T05:02:58.480Z,4.67
2023-10-29T05:05:27.001Z,6.15
2023-10-29T05:07:55.509Z,6.18
2023-10-29T05:10:26.281Z,5.05
2023-10-29T05:12:54.933Z,4.43
2023-10-29T05:15:23.382Z,5.30
2023-10-29T05:17:51.864Z,6.05
2023-10-29T05:20:20.450Z,5.45
2023-10-29T05:22:48.970Z,6.15
2023-10-29T05:25:17.346Z,5.43
2023-10-29T05:27:53.232Z,4.53
2023-10-29T05:30:21.590Z,5.05
2023-10-29T05:32:50.271Z,5.10
2023-10-29T05:35:18.737Z,5.53
2023-10-29T05:37:47.224Z,5.85
2023-10-29T05:40:16.159Z,5.73
2023-10-29T05:42:44.654Z,5.75
2023-10-29T05:45:14.064Z,8.30
2023-10-29T05:47:43.217Z,7.85
2023-10-29T05:50:11.866Z,7.40
2023-10-29T05:52:40.899Z,5.80
2023-10-29T05:55:09.338Z,4.88
2023-10-29T05:57:37.816Z,6.38
2023-10-29T06:00:07.035Z,5.07
2023-10-29T06:02:41.668Z,6.68
2023-10-29T06:05:10.297Z,7.57
2023-10-29T06:07:43.099Z,7.22
2023-10-29T06:10:13.358Z,5.70
2023-10-29T06:12:41.885Z,5.35
2023-10-29T06:15:11.959Z,6.10
2023-10-29T06:17:42.864Z,6.00
2023-10-29T06:20:12.556Z,5.20
2023-10-29T06:22:41.141Z,5.20
2023-10-29T06:25:11.153Z,8.65
2023-10-29T06:27:39.687Z,5.00
2023-10-29T06:30:09.575Z,5.37
2023-10-29T06:32:43.332Z,5.15
2023-10-29T06:35:13.563Z,5.78
2023-10-29T06:37:42.085Z,5.03
2023-10-29T06:40:13.519Z,4.60
2023-10-29T06:42:43.539Z,5.03
2023-10-29T06:45:12.130Z,5.07
2023-10-29T06:47:40.784Z,4.97
2023-10-29T06:50:09.463Z,5.57
2023-10-29T06:52:39.016Z,5.75
2023-10-29T06:55:10.050Z,7.40
2023-10-29T06:57:39.033Z,6.22
2023-10-29T07:00:09.657Z,5.07
2023-10-29T07:02:38.394Z,6.82
2023-10-29T07:05:07.619Z,12.10
2023-10-29T07:07:36.226Z,18.63
2023-10-29T07:10:06.527Z,24.70
2023-10-29T07:12:35.134Z,33.85
2023-10-29T07:15:03.677Z,10.07
2023-10-29T07:17:32.289Z,6.43
2023-10-29T07:20:01.166Z,6.23
2023-10-29T07:22:30.439Z,7.20
2023-10-29T07:24:59.040Z,5.90
2023-10-29T07:27:28.715Z,6.35
2023-10-29T07:29:57.290Z,6.78
2023-10-29T07:32:25.663Z,8.70
2023-10-29T07:34:54.131Z,7.25
2023-10-29T07:37:22.546Z,7.97
2023-10-29T07:39:51.060Z,6.63
2023-10-29T07:42:19.933Z,6.20
2023-10-29T07:44:49.707Z,6.23
2023-10-29T07:47:18.344Z,5.88
2023-10-29T07:49:46.788Z,5.97
2023-10-29T07:52:56.147Z,6.10
2023-10-29T07:55:12.702Z,5.35
2023-10-29T07:57:41.446Z,9.20
2023-10-29T08:00:12.174Z,6.45
2023-10-29T08:02:43.993Z,7.97
2023-10-29T08:05:12.699Z,6.10
2023-10-29T08:07:41.330Z,7.13
2023-10-29T08:10:10.560Z,6.33
2023-10-29T08:12:39.016Z,8.55
2023-10-29T08:15:08.424Z,6.55
2023-10-29T08:17:38.100Z,5.25
2023-10-29T08:20:07.472Z,8.10
2023-10-29T08:22:36.049Z,7.10
2023-10-29T08:25:04.575Z,4.75
2023-10-29T08:27:32.981Z,5.57
2023-10-29T08:30:01.407Z,5.03
2023-10-29T08:32:34.305Z,6.28
2023-10-29T08:35:04.013Z,4.77
2023-10-29T08:37:32.540Z,4.35
2023-10-29T08:40:00.988Z,5.95
2023-10-29T08:42:31.130Z,5.00
2023-10-29T08:44:59.803Z,4.97
2023-10-29T08:47:28.761Z,7.37
2023-10-29T08:49:57.208Z,5.35
2023-10-29T08:52:26.735Z,6.03
2023-10-29T08:54:55.425Z,4.32
2023-10-29T08:57:23.947Z,3.40
2023-10-29T08:59:52.535Z,3.90
2023-10-29T09:02:21.817Z,3.80
2023-10-29T09:04:54.029Z,3.78
2023-10-29T09:07:22.959Z,4.40
2023-10-29T09:09:52.820Z,3.78
2023-10-29T09:12:21.317Z,3.63
2023-10-29T09:14:50.131Z,3.80
2023-10-29T09:17:18.869Z,3.65
2023-10-29T09:19:47.397Z,3.70
2023-10-29T09:22:15.975Z,3.58
2023-10-29T09:24:44.567Z,4.60
2023-10-29T09:27:14.086Z,6.13
2023-10-29T09:29:50.427Z,3.00
2023-10-29T09:32:19.058Z,3.15
2023-10-29T09:34:47.934Z,4.85
2023-10-29T09:37:16.482Z,3.13
2023-10-29T09:39:46.123Z,4.30
2023-10-29T09:42:19.578Z,4.35
2023-10-29T09:44:48.406Z,5.25
2023-10-29T09:47:23.431Z,4.22
2023-10-29T09:49:54.026Z,3.83
2023-10-29T09:52:22.671Z,4.25
2023-10-29T09:54:51.702Z,4.28
2023-10-29T09:57:21.280Z,5.90
2023-10-29T09:59:49.940Z,4.47
2023-10-29T10:02:18.526Z,3.40
2023-10-29T10:04:49.786Z,3.58
2023-10-29T10:07:21.516Z,3.80
2023-10-29T10:09:53.829Z,3.83
2023-10-29T10:12:25.569Z,4.07
2023-10-29T10:14:54.663Z,3.70
2023-10-29T10:17:23.250Z,5.72
2023-10-29T10:20:12.280Z,4.43
2023-10-29T10:22:44.305Z,3.58
2023-10-29T10:25:22.515Z,3.25
2023-10-29T10:27:52.816Z,4.83
2023-10-29T10:30:32.055Z,4.07
2023-10-29T10:33:15.227Z,3.45
2023-10-29T10:35:45.846Z,4.65
2023-10-29T10:38:16.263Z,3.10
2023-10-29T10:40:45.786Z,2.90
2023-10-29T10:43:22.023Z,4.10
2023-10-29T10:45:51.753Z,4.00
2023-10-29T10:48:20.729Z,4.43
2023-10-29T10:50:49.659Z,4.20
2023-10-29T10:53:18.966Z,4.43
2023-10-29T10:56:02.299Z,5.22
2023-10-29T10:58:33.934Z,5.30
2023-10-29T11:01:04.135Z,4.93
2023-10-29T11:03:34.537Z,4.82
2023-10-29T11:06:04.254Z,4.80
2023-10-29T11:08:32.966Z,5.22
2023-10-29T11:11:02.070Z,4.47
2023-10-29T11:13:30.549Z,4.40
2023-10-29T11:16:03.135Z,5.68
2023-10-29T11:18:34.164Z,8.87
2023-10-29T11:21:06.322Z,5.75
2023-10-29T11:23:36.016Z,4.47
2023-10-29T11:26:22.219Z,4.95
2023-10-29T11:28:55.941Z,3.38
2023-10-29T11:31:40.492Z,4.87
2023-10-29T11:34:37.120Z,5.35
2023-10-29T11:37:36.672Z,3.97
2023-10-29T11:40:31.125Z,4.50
2023-10-29T11:43:33.352Z,4.28
2023-10-29T11:46:02.629Z,5.93
2023-10-29T11:48:34.706Z,6.38
2023-10-29T11:51:22.832Z,5.70
2023-10-29T11:53:51.746Z,5.70
2023-10-29T11:56:22.285Z,4.63
2023-10-29T11:59:06.881Z,5.27
2023-10-29T12:02:15.871Z,5.28
2023-10-29T12:08:20.943Z,5.85
2023-10-29T12:10:50.699Z,4.85
2023-10-29T12:13:19.964Z,4.97
2023-10-29T12:15:49.829Z,4.70
2023-10-29T12:18:22.416Z,7.70
2023-10-29T12:20:52.402Z,4.45
2023-10-29T12:23:21.171Z,4.88
2023-10-29T12:25:49.660Z,5.17
2023-10-29T12:28:18.193Z,5.38
2023-10-29T12:30:53.606Z,5.25
2023-10-29T12:33:23.717Z,6.72
2023-10-29T12:35:54.550Z,5.20
2023-10-29T12:38:24.398Z,4.23
2023-10-29T12:41:12.445Z,5.07
2023-10-29T12:43:43.796Z,4.72
2023-10-29T12:46:50.317Z,4.80
2023-10-29T12:49:24.182Z,6.18
2023-10-29T12:51:55.892Z,5.03
2023-10-29T12:54:30.256Z,4.60
2023-10-29T12:57:00.087Z,4.80
2023-10-29T12:59:31.615Z,6.55
2023-10-29T13:02:01.236Z,6.53
2023-10-29T13:04:30.137Z,5.63
2023-10-29T13:07:13.204Z,5.35
2023-10-29T13:10:05.393Z,7.18
2023-10-29T13:12:41.257Z,4.78
2023-10-29T13:15:10.258Z,5.28
2023-10-29T13:17:40.078Z,4.40
2023-10-29T13:20:10.472Z,4.80
2023-10-29T13:22:45.424Z,4.82
2023-10-29T13:25:27.373Z,4.40
2023-10-29T13:27:55.953Z,4.78
2023-10-29T13:30:24.631Z,4.20
2023-10-29T13:32:53.311Z,4.97
2023-10-29T13:35:21.912Z,4.00
2023-10-29T13:37:51.593Z,5.18
2023-10-29T13:40:20.427Z,4.35
2023-10-29T13:42:48.939Z,4.67
2023-10-29T13:45:17.433Z,4.05
2023-10-29T13:47:46.162Z,4.70
2023-10-29T13:50:14.572Z,5.30
2023-10-29T13:52:43.115Z,6.28
2023-10-29T13:55:26.778Z,4.87
2023-10-29T13:57:57.186Z,5.18
2023-10-29T14:00:27.109Z,4.70
2023-10-29T14:02:58.131Z,4.50
2023-10-29T14:05:28.416Z,4.68
2023-10-29T14:07:59.033Z,5.23
2023-10-29T14:10:32.760Z,4.13
2023-10-29T14:13:01.223Z,4.75
2023-10-29T14:15:29.717Z,4.50
2023-10-29T14:18:00.880Z,4.32
2023-10-29T14:20:31.059Z,4.20
2023-10-29T14:22:59.563Z,4.10
2023-10-29T14:25:28.072Z,5.57
2023-10-29T14:28:00.797Z,6.10
2023-10-29T14:30:29.670Z,4.40
2023-10-29T14:33:00.006Z,5.20
2023-10-29T14:35:29.015Z,3.92
2023-10-29T14:37:57.792Z,3.90
2023-10-29T14:40:26.496Z,6.28
2023-10-29T14:43:07.898Z,4.15
2023-10-29T14:45:47.112Z,4.17
2023-10-29T14:48:15.920Z,3.60
2023-10-29T14:50:44.558Z,4.75
2023-10-29T14:54:00.857Z,6.95
2023-10-29T14:56:46.489Z,7.10
2023-10-29T15:00:30.873Z,7.13
2023-10-29T15:03:13.175Z,7.75
2023-10-29T15:05:42.326Z,7.93
2023-10-29T15:08:10.965Z,105.05
2023-10-29T15:10:39.450Z,21.92
2023-10-29T15:13:07.995Z,20.80
2023-10-29T15:15:39.307Z,10.23
2023-10-29T15:18:11.332Z,7.70
2023-10-29T15:20:47.713Z,8.05
2023-10-29T15:23:19.574Z,6.18
2023-10-29T15:25:48.537Z,5.27
2023-10-29T15:28:17.210Z,5.25
2023-10-29T15:30:45.752Z,5.68
2023-10-29T15:33:15.741Z,5.05
2023-10-29T15:35:47.065Z,7.75
2023-10-29T15:38:15.820Z,5.30
2023-10-29T15:40:44.576Z,4.47
2023-10-29T15:43:13.250Z,6.00
2023-10-29T15:45:43.381Z,6.85
2023-10-29T15:48:13.548Z,6.80
2023-10-29T15:50:50.240Z,7.00
2023-10-29T15:53:19.504Z,6.35
2023-10-29T15:55:48.186Z,5.57
2023-10-29T15:58:19.452Z,6.53
2023-10-29T16:00:50.773Z,5.72
2023-10-29T16:03:19.634Z,7.53
2023-10-29T16:05:51.083Z,5.57
2023-10-29T16:08:21.279Z,7.82
2023-10-29T16:10:49.992Z,7.00
2023-10-29T16:13:18.670Z,5.22
2023-10-29T16:15:47.163Z,6.17
2023-10-29T16:18:15.754Z,4.72
2023-10-29T16:20:48.675Z,5.07
2023-10-29T16:23:18.418Z,6.10
2023-10-29T16:25:46.822Z,6.22
2023-10-29T16:28:15.479Z,6.23
2023-10-29T16:31:18.447Z,7.35
2023-10-29T16:33:47.345Z,6.10
2023-10-29T16:36:17.351Z,6.75
2023-10-29T16:38:47.226Z,5.65
2023-10-29T16:41:18.102Z,5.53
2023-10-29T16:43:50.189Z,6.78
2023-10-29T16:47:32.671Z,6.80
2023-10-29T16:50:02.730Z,6.63
2023-10-29T16:52:40.267Z,7.28
2023-10-29T16:55:12.903Z,9.50
2023-10-29T16:57:41.507Z,10.82
2023-10-29T17:00:11.339Z,11.88
2023-10-29T17:02:40.593Z,14.00
2023-10-29T17:05:09.456Z,11.43
2023-10-29T17:07:37.958Z,11.03
2023-10-29T17:10:06.770Z,9.70
2023-10-29T17:12:38.683Z,9.75
2023-10-29T17:15:09.121Z,8.38
2023-10-29T17:17:37.713Z,8.88
2023-10-29T17:20:07.152Z,10.83
2023-10-29T17:22:35.616Z,14.25
2023-10-29T17:25:04.780Z,11.10
2023-10-29T17:27:33.702Z,9.15
2023-10-29T17:30:07.885Z,7.53
2023-10-29T17:32:36.755Z,7.97
2023-10-29T17:35:06.118Z,8.05
2023-10-29T17:37:44.641Z,7.57
2023-10-29T17:40:15.723Z,8.57
2023-10-29T17:42:44.220Z,7.70
2023-10-29T17:45:14.534Z,9.13
2023-10-29T17:47:44.497Z,8.07
2023-10-29T17:50:14.005Z,11.27
2023-10-29T17:52:42.918Z,8.77
2023-10-29T17:55:11.601Z,9.07
2023-10-29T17:57:40.176Z,9.47
2023-10-29T18:00:10.191Z,8.25
2023-10-29T18:02:50.224Z,12.35
2023-10-29T18:05:46.571Z,8.68
2023-10-29T18:09:33.282Z,9.43
2023-10-29T18:12:23.449Z,10.83
2023-10-29T18:15:12.876Z,11.88
2023-10-29T18:17:49.795Z,11.85
2023-10-29T18:20:20.683Z,8.68
2023-10-29T18:23:32.474Z,11.70
2023-10-29T18:26:06.798Z,11.87
2023-10-29T18:28:38.444Z,13.27
2023-10-29T18:31:15.884Z,12.32
2023-10-29T18:36:53.182Z,11.70
2023-10-29T18:40:15.243Z,12.10
2023-10-29T18:44:13.565Z,12.05
2023-10-29T18:46:44.916Z,13.07
2023-10-29T18:49:18.514Z,16.13
2023-10-29T18:51:47.208Z,14.68
2023-10-29T18:54:22.001Z,12.53
2023-10-29T18:57:20.627Z,12.48
2023-10-29T18:59:50.328Z,11.20
2023-10-29T19:02:22.889Z,12.10
2023-10-29T19:04:52.470Z,10.00
2023-10-29T19:07:31.341Z,9.27
2023-10-29T19:10:25.275Z,9.68
2023-10-29T19:13:54.965Z,9.65
2023-10-29T19:16:56.729Z,10.00
2023-10-29T19:19:26.506Z,10.70
2023-10-29T19:21:56.174Z,8.30
2023-10-29T19:24:26.218Z,9.50
2023-10-29T19:26:54.798Z,10.80
2023-10-29T19:29:33.970Z,8.30
2023-10-29T19:32:10.025Z,8.60
2023-10-29T19:34:41.991Z,12.00
2023-10-29T19:37:11.522Z,13.63
2023-10-29T19:39:39.989Z,8.75
2023-10-29T19:42:09.702Z,8.70
2023-10-29T19:44:40.338Z,10.05
2023-10-29T19:47:08.998Z,7.67
2023-10-29T19:49:38.125Z,9.90
2023-10-29T19:52:08.063Z,9.25
2023-10-29T19:54:37.730Z,8.57
2023-10-29T19:57:06.621Z,8.82
2023-10-29T19:59:35.140Z,7.23
2023-10-29T20:02:03.607Z,10.02
2023-10-29T20:04:32.209Z,8.05
2023-10-29T20:07:00.842Z,9.35
2023-10-29T20:09:29.377Z,10.07
2023-10-29T20:11:58.860Z,8.00
2023-10-29T20:14:28.290Z,9.00
2023-10-29T20:16:56.828Z,9.80
2023-10-29T20:19:25.313Z,10.50
2023-10-29T20:21:53.810Z,9.00
2023-10-29T20:24:22.302Z,9.90
2023-10-29T20:26:50.866Z,10.15
2023-10-29T20:29:20.354Z,9.68
2023-10-29T20:31:49.354Z,11.13
2023-10-29T20:34:17.871Z,8.15
2023-10-29T20:36:45.942Z,8.77
2023-10-29T20:39:14.361Z,10.00
2023-10-29T20:41:42.841Z,9.82
2023-10-29T20:44:13.723Z,40.65
2023-10-29T20:46:43.260Z,30.42
2023-10-29T20:49:16.615Z,40.27
2023-10-29T20:51:45.102Z,34.53
2023-10-29T20:54:13.680Z,13.80
2023-10-29T20:56:41.872Z,39.67
2023-10-29T20:59:10.327Z,42.38
2023-10-29T21:01:38.881Z,71.53
2023-10-29T21:04:08.670Z,14.55
2023-10-29T21:06:37.971Z,11.63
2023-10-29T21:09:11.275Z,48.63
2023-10-29T21:11:39.777Z,40.50
2023-10-29T21:14:08.299Z,50.20
2023-10-29T21:16:37.546Z,25.08
2023-10-29T21:19:07.605Z,31.17
2023-10-29T21:21:37.301Z,27.80
2023-10-29T21:24:09.743Z,76.78
2023-10-29T21:26:38.279Z,36.27
2023-10-29T21:29:06.754Z,14.30
2023-10-29T21:31:35.292Z,12.73
2023-10-29T21:34:03.725Z,36.25
2023-10-29T21:36:32.343Z,30.10
2023-10-29T21:39:02.199Z,29.80
2023-10-29T21:41:30.708Z,44.55
2023-10-29T21:43:59.243Z,20.00
2023-10-29T21:46:27.825Z,16.38
2023-10-29T21:48:56.910Z,23.70
2023-10-29T21:51:25.442Z,44.53
2023-10-29T21:53:53.965Z,30.42
2023-10-29T21:56:23.512Z,21.10
2023-10-29T21:58:51.986Z,40.83
2023-10-29T22:01:23.220Z,18.65
2023-10-29T22:03:52.192Z,12.17
2023-10-29T22:06:22.045Z,46.33
2023-10-29T22:08:50.504Z,35.70
2023-10-29T22:11:18.917Z,31.63
2023-10-29T22:13:48.436Z,19.52
2023-10-29T22:16:16.908Z,38.87
2023-10-29T22:18:45.451Z,37.63
2023-10-29T22:21:14.624Z,28.98
2023-10-29T22:23:43.281Z,15.73
2023-10-29T22:26:11.729Z,34.88
2023-10-29T22:28:40.265Z,29.30
2023-10-29T22:31:09.661Z,45.03
2023-10-29T22:33:38.524Z,27.60
2023-10-29T22:36:08.782Z,13.65
2023-10-29T22:38:37.298Z,11.38
2023-10-29T22:41:06.499Z,12.17
2023-10-29T22:43:35.204Z,11.35
2023-10-29T22:46:04.238Z,10.73
2023-10-29T22:48:34.358Z,11.73
2023-10-29T22:51:03.722Z,12.60
2023-10-29T22:53:32.249Z,11.60
2023-10-29T22:56:01.500Z,11.73
2023-10-29T22:58:30.121Z,9.85
2023-10-29T23:00:58.690Z,10.95
2023-10-29T23:03:27.694Z,10.93
2023-10-29T23:05:57.725Z,10.33
2023-10-29T23:08:26.110Z,13.13
2023-10-29T23:10:56.994Z,13.00
2023-10-29T23:13:26.564Z,11.10
2023-10-29T23:15:57.033Z,10.45
2023-10-29T23:18:28.245Z,9.17
2023-10-29T23:20:57.878Z,10.15
2023-10-29T23:23:26.372Z,11.00
2023-10-29T23:25:54.910Z,12.70
2023-10-29T23:28:36.626Z,13.45
2023-10-29T23:31:06.939Z,8.50
2023-10-29T23:33:35.540Z,10.43
2023-10-29T23:36:05.632Z,9.25
2023-10-29T23:38:34.075Z,10.93
2023-10-29T23:41:02.557Z,9.88
2023-10-29T23:43:31.121Z,9.20
2023-10-29T23:45:59.686Z,8.55
2023-10-29T23:48:28.207Z,8.60
2023-10-29T23:50:56.718Z,9.43
2023-10-29T23:53:26.232Z,11.15
2023-10-29T23:55:54.735Z,9.27
2023-10-29T23:58:23.345Z,9.73
